createdAt,value
2022-10-14T00:01:20.543Z,9.90
2022-10-14T00:03:48.246Z,9.90
2022-10-14T00:06:23.979Z,9.90
2022-10-14T00:08:51.845Z,9.90
2022-10-14T00:11:25.441Z,9.90
2022-10-14T00:13:58.049Z,9.90
2022-10-14T00:16:29.693Z,9.90
2022-10-14T00:19:01.125Z,9.90
2022-10-14T00:21:31.076Z,9.90
2022-10-14T00:24:01.100Z,9.90
2022-10-14T00:26:31.937Z,9.90
2022-10-14T00:29:00.876Z,9.90
2022-10-14T00:31:34.040Z,9.80
2022-10-14T00:34:01.868Z,9.90
2022-10-14T00:36:29.919Z,9.90
2022-10-14T00:38:57.278Z,9.90
2022-10-14T00:41:33.431Z,9.80
2022-10-14T00:44:07.697Z,9.90
2022-10-14T00:46:40.540Z,9.90
2022-10-14T00:49:33.377Z,9.90
2022-10-14T00:52:06.394Z,9.80
2022-10-14T00:54:38.026Z,9.80
2022-10-14T00:57:06.112Z,9.80
2022-10-14T00:59:34.562Z,9.70
2022-10-14T01:02:02.290Z,9.70
2022-10-14T01:04:29.852Z,9.70
2022-10-14T01:07:09.719Z,9.70
2022-10-14T01:09:41.847Z,9.70
2022-10-14T01:12:47.894Z,9.70
2022-10-14T01:15:35.569Z,9.70
2022-10-14T01:18:50.125Z,9.70
2022-10-14T01:21:29.192Z,9.70
2022-10-14T01:24:33.124Z,9.70
2022-10-14T01:27:26.414Z,9.70
2022-10-14T01:30:14.554Z,9.60
2022-10-14T01:32:59.579Z,9.60
2022-10-14T01:35:39.024Z,9.60
2022-10-14T01:38:33.723Z,9.60
2022-10-14T01:41:10.213Z,9.60
2022-10-14T01:43:39.706Z,9.60
2022-10-14T01:46:08.298Z,9.60
2022-10-14T01:48:41.991Z,9.60
2022-10-14T01:51:17.607Z,9.60
2022-10-14T01:53:55.020Z,9.60
2022-10-14T01:56:25.611Z,9.60
2022-10-14T01:58:54.012Z,9.60
2022-10-14T02:01:23.852Z,9.60
2022-10-14T02:03:51.321Z,9.60
2022-10-14T02:06:34.751Z,9.60
2022-10-14T02:09:02.711Z,9.70
2022-10-14T02:11:41.684Z,9.60
2022-10-14T02:14:19.866Z,9.60
2022-10-14T02:17:24.817Z,9.60
2022-10-14T02:20:05.786Z,9.70
2022-10-14T02:22:40.431Z,9.70
2022-10-14T02:25:20.123Z,9.60
2022-10-14T02:27:49.251Z,9.60
2022-10-14T02:30:17.959Z,9.60
2022-10-14T02:32:47.238Z,9.60
2022-10-14T02:35:18.508Z,9.60
2022-10-14T02:37:49.494Z,9.60
2022-10-14T02:40:33.415Z,9.60
2022-10-14T02:43:00.850Z,9.60
2022-10-14T02:45:28.296Z,9.60
2022-10-14T02:47:55.877Z,9.60
2022-10-14T02:50:23.185Z,9.60
2022-10-14T02:52:52.221Z,9.50
2022-10-14T02:55:21.211Z,9.50
2022-10-14T02:57:49.022Z,9.50
2022-10-14T03:00:17.156Z,9.50
2022-10-14T03:02:44.717Z,9.50
2022-10-14T03:05:13.840Z,9.50
2022-10-14T03:07:41.309Z,9.50
2022-10-14T03:10:12.301Z,9.50
2022-10-14T03:12:39.991Z,9.40
2022-10-14T03:15:14.939Z,9.40
2022-10-14T03:17:42.359Z,9.40
2022-10-14T03:20:10.478Z,9.40
2022-10-14T03:22:48.718Z,9.50
2022-10-14T03:25:17.871Z,9.40
2022-10-14T03:28:05.539Z,9.40
2022-10-14T03:30:45.157Z,9.40
2022-10-14T03:33:20.413Z,9.40
2022-10-14T03:35:54.833Z,9.40
2022-10-14T03:38:34.558Z,9.40
2022-10-14T03:41:02.919Z,9.50
2022-10-14T03:43:33.922Z,9.40
2022-10-14T03:46:02.534Z,9.40
2022-10-14T03:48:30.448Z,9.40
2022-10-14T03:50:58.394Z,9.40
2022-10-14T03:53:26.505Z,9.40
2022-10-14T03:55:54.624Z,9.40
2022-10-14T03:58:24.615Z,9.40
2022-10-14T04:00:58.486Z,9.40
2022-10-14T04:03:35.170Z,9.40
2022-10-14T04:06:02.582Z,9.40
2022-10-14T04:08:30.975Z,9.40
2022-10-14T04:11:03.030Z,9.40
2022-10-14T04:13:37.193Z,9.40
2022-10-14T04:16:09.971Z,9.40
2022-10-14T04:18:49.885Z,9.40
2022-10-14T04:21:22.341Z,9.40
2022-10-14T04:23:52.316Z,9.40
2022-10-14T04:26:30.519Z,9.40
2022-10-14T04:28:59.060Z,9.40
2022-10-14T04:31:38.554Z,9.40
2022-10-14T04:34:08.763Z,9.40
2022-10-14T04:36:41.929Z,9.60
2022-10-14T04:39:31.999Z,9.40
2022-10-14T04:42:00.122Z,9.40
2022-10-14T04:44:29.530Z,9.40
2022-10-14T04:46:57.024Z,9.40
2022-10-14T04:49:27.477Z,9.40
2022-10-14T04:52:08.728Z,9.40
2022-10-14T04:54:49.042Z,9.30
2022-10-14T04:57:16.362Z,9.40
2022-10-14T04:59:48.925Z,9.30
2022-10-14T05:02:22.973Z,9.30
2022-10-14T05:04:56.582Z,9.30
2022-10-14T05:07:24.579Z,9.30
2022-10-14T05:09:57.305Z,9.20
2022-10-14T05:12:34.363Z,9.20
2022-10-14T05:15:05.440Z,9.20
2022-10-14T05:17:50.676Z,9.20
2022-10-14T05:20:22.667Z,9.20
2022-10-14T05:22:53.827Z,9.20
2022-10-14T05:25:24.307Z,9.20
2022-10-14T05:27:55.699Z,9.20
2022-10-14T05:30:23.836Z,9.20
2022-10-14T05:32:53.103Z,9.20
2022-10-14T05:35:40.142Z,9.20
2022-10-14T05:38:12.349Z,9.20
2022-10-14T05:40:45.179Z,9.20
2022-10-14T05:43:13.925Z,9.20
2022-10-14T05:45:46.283Z,9.20
2022-10-14T05:48:14.058Z,9.20
2022-10-14T05:50:43.404Z,9.20
2022-10-14T05:53:15.525Z,9.20
2022-10-14T05:55:47.775Z,9.20
2022-10-14T05:58:15.510Z,9.30
2022-10-14T06:00:45.031Z,9.20
2022-10-14T06:03:17.995Z,9.30
2022-10-14T06:05:46.478Z,9.30
2022-10-14T06:08:14.267Z,9.20
2022-10-14T06:10:41.878Z,9.20
2022-10-14T06:13:09.463Z,9.20
2022-10-14T06:15:39.048Z,9.30
2022-10-14T06:18:07.836Z,9.30
2022-10-14T06:20:36.335Z,9.30
2022-10-14T06:23:06.315Z,9.40
2022-10-14T06:25:33.772Z,9.50
2022-10-14T06:28:05.353Z,9.50
2022-10-14T06:30:34.762Z,9.60
2022-10-14T06:33:02.019Z,9.70
2022-10-14T06:35:29.626Z,9.70
2022-10-14T06:37:57.804Z,9.70
2022-10-14T06:40:25.889Z,9.70
2022-10-14T06:42:53.789Z,9.60
2022-10-14T06:45:21.233Z,9.60
2022-10-14T06:47:49.017Z,9.70
2022-10-14T06:50:16.366Z,9.70
2022-10-14T06:52:48.480Z,9.70
2022-10-14T06:55:16.297Z,9.70
2022-10-14T06:57:46.630Z,9.80
2022-10-14T07:00:14.336Z,9.80
2022-10-14T07:02:41.978Z,9.90
2022-10-14T07:05:09.810Z,9.90
2022-10-14T07:07:37.048Z,9.90
2022-10-14T07:10:04.943Z,10.10
2022-10-14T07:12:32.314Z,10.20
2022-10-14T07:14:59.970Z,10.10
2022-10-14T07:17:27.248Z,10.20
2022-10-14T07:19:54.569Z,10.30
2022-10-14T07:22:24.586Z,10.40
2022-10-14T07:24:55.012Z,10.40
2022-10-14T07:27:23.986Z,10.40
2022-10-14T07:29:52.385Z,10.40
2022-10-14T07:32:20.941Z,10.30
2022-10-14T07:34:48.181Z,10.30
2022-10-14T07:37:15.823Z,10.50
2022-10-14T07:39:43.182Z,10.40
2022-10-14T07:42:10.988Z,10.50
2022-10-14T07:44:39.953Z,10.60
2022-10-14T07:47:07.727Z,10.60
2022-10-14T07:49:35.462Z,10.60
2022-10-14T07:52:02.941Z,10.70
2022-10-14T07:54:32.516Z,10.80
2022-10-14T07:57:00.313Z,10.80
2022-10-14T07:59:27.640Z,10.80
2022-10-14T08:01:57.095Z,10.90
2022-10-14T08:04:25.111Z,10.90
2022-10-14T08:06:54.250Z,10.90
2022-10-14T08:09:22.033Z,10.90
2022-10-14T08:11:49.603Z,11.00
2022-10-14T08:14:17.337Z,11.20
2022-10-14T08:16:48.101Z,11.10
2022-10-14T08:19:15.585Z,11.00
2022-10-14T08:21:44.441Z,11.10
2022-10-14T08:24:14.907Z,10.90
2022-10-14T08:26:51.815Z,11.00
2022-10-14T08:29:19.432Z,11.10
2022-10-14T08:31:46.965Z,11.20
2022-10-14T08:34:14.393Z,11.20
2022-10-14T08:36:41.914Z,11.10
2022-10-14T08:42:13.570Z,11.30
2022-10-14T08:44:48.249Z,11.30
2022-10-14T08:47:24.203Z,11.40
2022-10-14T08:50:04.030Z,11.40
2022-10-14T08:52:40.006Z,11.50
2022-10-14T08:55:44.111Z,11.90
2022-10-14T08:58:35.109Z,12.10
2022-10-14T09:01:13.713Z,12.20
2022-10-14T09:03:42.713Z,12.70
2022-10-14T09:06:24.453Z,13.20
2022-10-14T09:08:54.955Z,13.10
2022-10-14T09:11:25.269Z,12.90
2022-10-14T09:13:58.043Z,13.20
2022-10-14T09:16:37.537Z,13.40
2022-10-14T09:19:12.303Z,13.40
2022-10-14T09:21:53.472Z,13.50
2022-10-14T09:24:22.608Z,13.50
2022-10-14T09:26:53.950Z,13.50
2022-10-14T09:29:27.656Z,13.30
2022-10-14T09:32:02.900Z,13.30
2022-10-14T09:34:38.991Z,13.40
2022-10-14T09:37:26.158Z,13.60
2022-10-14T09:39:59.349Z,14.00
2022-10-14T09:43:02.140Z,14.30
2022-10-14T09:45:49.039Z,14.70
2022-10-14T09:48:50.239Z,14.80
2022-10-14T09:51:30.074Z,15.10
2022-10-14T09:54:05.117Z,15.40
2022-10-14T09:56:41.989Z,15.60
2022-10-14T09:59:21.463Z,15.60
2022-10-14T10:01:53.770Z,15.60
2022-10-14T10:04:33.675Z,15.80
2022-10-14T10:07:06.030Z,15.70
2022-10-14T10:09:36.492Z,15.60
2022-10-14T10:12:26.403Z,15.80
2022-10-14T10:15:01.004Z,16.00
2022-10-14T10:17:36.326Z,16.60
2022-10-14T10:20:28.650Z,17.10
2022-10-14T10:22:57.112Z,17.20
2022-10-14T10:25:28.947Z,17.50
2022-10-14T10:27:59.977Z,17.20
2022-10-14T10:30:39.864Z,17.00
2022-10-14T10:33:19.448Z,16.90
2022-10-14T10:36:08.700Z,17.40
2022-10-14T10:39:05.227Z,17.80
2022-10-14T10:41:59.369Z,17.80
2022-10-14T10:45:16.250Z,18.10
2022-10-14T10:48:01.350Z,17.80
2022-10-14T10:51:12.704Z,17.90
2022-10-14T10:54:02.915Z,18.30
2022-10-14T10:56:42.204Z,18.50
2022-10-14T10:59:31.113Z,19.30
2022-10-14T11:02:33.771Z,19.20
2022-10-14T11:05:25.932Z,19.50
2022-10-14T11:08:37.957Z,19.00
2022-10-14T11:11:48.711Z,19.50
2022-10-14T11:14:24.647Z,19.40
2022-10-14T11:17:16.230Z,19.80
2022-10-14T11:20:02.589Z,19.10
2022-10-14T11:23:20.922Z,19.30
2022-10-14T11:25:55.969Z,18.90
2022-10-14T11:28:48.792Z,18.50
2022-10-14T11:31:41.750Z,18.60
2022-10-14T11:34:41.941Z,18.90
2022-10-14T11:37:41.174Z,18.30
2022-10-14T11:40:32.020Z,18.30
2022-10-14T11:43:13.694Z,18.30
2022-10-14T11:45:53.926Z,18.50
2022-10-14T11:48:33.963Z,18.40
2022-10-14T11:51:34.784Z,18.80
2022-10-14T11:54:08.678Z,19.10
2022-10-14T11:57:20.473Z,19.20
2022-10-14T12:00:31.020Z,18.80
2022-10-14T12:03:10.789Z,19.00
2022-10-14T12:06:04.269Z,19.00
2022-10-14T12:08:57.918Z,19.20
2022-10-14T12:11:48.812Z,18.60
2022-10-14T12:14:44.880Z,18.60
2022-10-14T12:17:42.371Z,18.40
2022-10-14T12:20:20.293Z,18.80
2022-10-14T12:22:51.770Z,18.20
2022-10-14T12:25:22.466Z,18.50
2022-10-14T12:27:52.420Z,18.60
2022-10-14T12:30:42.647Z,17.90
2022-10-14T12:33:22.881Z,17.50
2022-10-14T12:35:52.733Z,16.90
2022-10-14T12:38:21.635Z,17.40
2022-10-14T12:40:50.453Z,17.80
2022-10-14T12:43:29.778Z,18.30
2022-10-14T12:46:02.900Z,17.80
2022-10-14T12:48:35.843Z,17.30
2022-10-14T12:51:16.997Z,17.10
2022-10-14T12:54:12.611Z,16.50
2022-10-14T12:56:54.743Z,16.00
2022-10-14T12:59:38.717Z,15.90
2022-10-14T13:02:43.270Z,15.70
2022-10-14T13:05:32.588Z,15.60
2022-10-14T13:08:16.285Z,15.50
2022-10-14T13:11:02.558Z,15.50
2022-10-14T13:14:04.842Z,15.60
2022-10-14T13:16:32.131Z,15.40
2022-10-14T13:19:25.765Z,15.40
2022-10-14T13:21:55.498Z,15.40
2022-10-14T13:24:26.236Z,15.30
2022-10-14T13:26:54.217Z,15.20
2022-10-14T13:29:21.585Z,15.10
2022-10-14T13:32:22.693Z,15.00
2022-10-14T13:35:16.404Z,14.90
2022-10-14T13:37:53.059Z,14.90
2022-10-14T13:40:35.508Z,14.90
2022-10-14T13:43:12.135Z,14.90
2022-10-14T13:45:48.301Z,14.90
2022-10-14T13:48:31.547Z,14.80
2022-10-14T13:51:35.894Z,14.70
2022-10-14T13:54:23.140Z,14.70
2022-10-14T14:00:41.240Z,14.70
2022-10-14T14:02:49.006Z,14.60
2022-10-14T14:05:26.074Z,14.60
2022-10-14T14:11:18.672Z,14.40
2022-10-14T14:13:59.929Z,14.40
2022-10-14T14:16:41.272Z,14.30
2022-10-14T14:19:20.967Z,14.20
2022-10-14T14:21:49.956Z,14.10
2022-10-14T14:24:25.846Z,14.00
2022-10-14T14:26:56.576Z,14.00
2022-10-14T14:29:31.613Z,13.90
2022-10-14T14:32:09.030Z,13.90
2022-10-14T14:34:38.635Z,13.80
2022-10-14T14:37:34.380Z,13.80
2022-10-14T14:40:00.676Z,13.70
2022-10-14T14:42:34.073Z,13.70
2022-10-14T14:45:05.992Z,13.60
2022-10-14T14:47:35.693Z,13.50
2022-10-14T14:50:28.943Z,13.50
2022-10-14T14:53:03.350Z,13.50
2022-10-14T14:55:36.269Z,13.30
2022-10-14T14:58:05.563Z,13.30
2022-10-14T15:00:32.967Z,13.30
2022-10-14T15:03:02.366Z,13.20
2022-10-14T15:05:32.398Z,13.20
2022-10-14T15:07:59.743Z,13.20
2022-10-14T15:10:30.508Z,13.10
2022-10-14T15:13:02.502Z,13.00
2022-10-14T15:15:35.076Z,13.00
2022-10-14T15:18:38.011Z,12.90
2022-10-14T15:21:15.090Z,12.90
2022-10-14T15:23:55.497Z,12.80
2022-10-14T15:26:34.205Z,12.80
2022-10-14T15:29:26.065Z,12.70
2022-10-14T15:32:02.482Z,12.70
2022-10-14T15:34:30.108Z,12.70
2022-10-14T15:36:57.434Z,12.60
2022-10-14T15:39:25.390Z,12.60
2022-10-14T15:41:55.233Z,12.60
2022-10-14T15:44:25.563Z,12.50
2022-10-14T15:47:11.364Z,12.50
2022-10-14T15:49:45.189Z,12.40
2022-10-14T15:52:19.358Z,12.40
2022-10-14T15:54:50.754Z,12.30
2022-10-14T15:57:18.116Z,12.30
2022-10-14T15:59:48.738Z,12.20
2022-10-14T16:02:22.715Z,12.20
2022-10-14T16:05:18.218Z,12.10
2022-10-14T16:07:41.007Z,12.10
2022-10-14T16:10:12.737Z,12.10
2022-10-14T16:12:41.074Z,12.00
2022-10-14T16:15:38.068Z,12.00
2022-10-14T16:18:05.517Z,12.00
2022-10-14T16:20:35.647Z,12.00
2022-10-14T16:23:04.795Z,12.00
2022-10-14T16:25:41.197Z,12.00
2022-10-14T16:28:11.861Z,12.00
2022-10-14T16:30:41.711Z,11.90
2022-10-14T16:35:42.036Z,11.80
2022-10-14T16:38:12.088Z,11.80
2022-10-14T16:40:39.370Z,11.80
2022-10-14T16:43:08.047Z,11.70
2022-10-14T16:45:35.504Z,11.70
2022-10-14T16:48:03.248Z,11.70
2022-10-14T16:50:30.664Z,11.70
2022-10-14T16:53:16.830Z,11.70
2022-10-14T16:55:44.587Z,11.60
2022-10-14T16:58:12.474Z,11.70
2022-10-14T17:00:42.266Z,11.60
2022-10-14T17:03:14.461Z,11.60
2022-10-14T17:05:47.184Z,11.60
2022-10-14T17:08:17.375Z,11.50
2022-10-14T17:10:53.873Z,11.50
2022-10-14T17:13:23.591Z,11.50
2022-10-14T17:15:52.350Z,11.50
2022-10-14T17:18:23.320Z,11.40
2022-10-14T17:21:04.024Z,11.50
2022-10-14T17:23:32.038Z,11.50
2022-10-14T17:25:59.519Z,11.40
2022-10-14T17:28:27.081Z,11.40
2022-10-14T17:30:56.992Z,11.40
2022-10-14T17:33:26.232Z,11.40
2022-10-14T17:36:00.533Z,11.40
2022-10-14T17:38:29.931Z,11.30
2022-10-14T17:41:07.571Z,11.30
2022-10-14T17:43:36.957Z,11.20
2022-10-14T17:46:13.186Z,11.20
2022-10-14T17:48:42.650Z,11.20
2022-10-14T17:51:12.048Z,11.20
2022-10-14T17:53:40.678Z,11.10
2022-10-14T17:56:14.001Z,11.10
2022-10-14T17:58:41.845Z,11.10
2022-10-14T18:01:16.270Z,11.10
2022-10-14T18:03:45.253Z,11.10
2022-10-14T18:06:16.735Z,11.00
2022-10-14T18:08:45.984Z,11.00
2022-10-14T18:11:13.424Z,11.00
2022-10-14T18:13:44.178Z,10.90
2022-10-14T18:16:14.547Z,11.10
2022-10-14T18:18:42.388Z,10.90
2022-10-14T18:21:10.619Z,10.90
2022-10-14T18:23:41.925Z,10.90
2022-10-14T18:26:14.684Z,10.80
2022-10-14T18:28:45.175Z,10.80
2022-10-14T18:31:18.199Z,10.80
2022-10-14T18:33:47.304Z,10.80
2022-10-14T18:36:17.148Z,10.80
2022-10-14T18:38:51.249Z,10.80
2022-10-14T18:41:19.095Z,10.80
2022-10-14T18:43:47.262Z,10.80
2022-10-14T18:46:22.643Z,10.70
2022-10-14T18:48:52.863Z,10.70
2022-10-14T18:51:28.356Z,10.70
2022-10-14T18:54:00.948Z,10.70
2022-10-14T18:56:33.512Z,10.70
2022-10-14T18:59:05.582Z,10.60
2022-10-14T19:01:35.089Z,10.70
2022-10-14T19:04:05.872Z,10.70
2022-10-14T19:06:34.158Z,10.60
2022-10-14T19:09:02.732Z,10.60
2022-10-14T19:11:31.784Z,10.60
2022-10-14T19:14:04.108Z,10.50
2022-10-14T19:16:33.846Z,10.50
2022-10-14T19:19:08.557Z,10.50
2022-10-14T19:21:40.954Z,10.40
2022-10-14T19:24:08.532Z,10.40
2022-10-14T19:26:38.578Z,10.40
2022-10-14T19:29:10.536Z,10.40
2022-10-14T19:31:42.747Z,10.40
2022-10-14T19:34:12.666Z,10.30
2022-10-14T19:36:43.079Z,10.30
2022-10-14T19:39:14.380Z,10.30
2022-10-14T19:41:46.593Z,10.30
2022-10-14T19:44:15.948Z,10.20
2022-10-14T19:46:44.202Z,10.20
2022-10-14T19:49:15.916Z,10.10
2022-10-14T19:51:43.701Z,10.10
2022-10-14T19:54:12.857Z,10.10
2022-10-14T19:56:44.427Z,10.10
2022-10-14T19:59:13.644Z,10.00
2022-10-14T20:01:42.121Z,10.00
2022-10-14T20:04:10.499Z,9.90
2022-10-14T20:06:40.054Z,9.90
2022-10-14T20:09:08.388Z,9.90
2022-10-14T20:11:36.098Z,9.80
2022-10-14T20:14:10.407Z,9.80
2022-10-14T20:16:38.114Z,9.80
2022-10-14T20:19:08.556Z,9.80
2022-10-14T20:21:35.896Z,9.80
2022-10-14T20:24:03.288Z,9.70
2022-10-14T20:26:32.974Z,9.70
2022-10-14T20:29:00.443Z,9.70
2022-10-14T20:31:27.939Z,9.70
2022-10-14T20:33:56.913Z,9.70
2022-10-14T20:36:24.480Z,9.60
2022-10-14T20:38:51.982Z,9.60
2022-10-14T20:41:22.085Z,9.60
2022-10-14T20:43:53.895Z,9.60
2022-10-14T20:46:22.770Z,9.60
2022-10-14T20:48:54.093Z,9.50
2022-10-14T20:51:22.910Z,9.50
2022-10-14T20:53:50.538Z,9.50
2022-10-14T20:56:17.799Z,9.50
2022-10-14T20:58:45.159Z,9.50
2022-10-14T21:01:17.606Z,9.40
2022-10-14T21:03:47.710Z,9.40
2022-10-14T21:06:22.699Z,9.40
2022-10-14T21:08:51.884Z,9.40
2022-10-14T21:11:21.533Z,9.30
2022-10-14T21:13:51.246Z,9.30
2022-10-14T21:16:24.819Z,9.30
2022-10-14T21:19:00.492Z,9.30
2022-10-14T21:21:31.723Z,9.20
2022-10-14T21:23:59.683Z,9.30
2022-10-14T21:26:30.236Z,9.30
2022-10-14T21:28:57.760Z,9.20
2022-10-14T21:31:25.068Z,9.20
2022-10-14T21:34:01.174Z,9.20
2022-10-14T21:36:32.028Z,9.20
2022-10-14T21:39:01.067Z,9.10
2022-10-14T21:41:28.591Z,9.10
2022-10-14T21:43:59.203Z,9.20
2022-10-14T21:46:27.680Z,9.10
2022-10-14T21:49:00.098Z,9.10
2022-10-14T21:51:29.366Z,9.20
2022-10-14T21:53:57.414Z,9.10
2022-10-14T21:56:27.557Z,9.10
2022-10-14T21:58:58.182Z,9.10
2022-10-14T22:01:29.843Z,9.10
2022-10-14T22:04:03.998Z,9.00
2022-10-14T22:06:36.409Z,9.00
2022-10-14T22:09:07.296Z,9.00
2022-10-14T22:11:37.748Z,9.00
2022-10-14T22:14:07.545Z,9.10
2022-10-14T22:16:36.415Z,9.10
2022-10-14T22:19:06.404Z,9.10
2022-10-14T22:21:38.247Z,9.10
2022-10-14T22:26:41.024Z,9.10
2022-10-14T22:29:14.065Z,9.10
2022-10-14T22:31:43.062Z,9.10
2022-10-14T22:34:12.895Z,9.10
2022-10-14T22:36:42.831Z,9.20
2022-10-14T22:39:15.324Z,9.20
2022-10-14T22:41:42.750Z,9.10
2022-10-14T22:44:10.692Z,9.10
2022-10-14T22:46:40.014Z,9.10
2022-10-14T22:49:08.536Z,9.20
2022-10-14T22:51:41.367Z,9.10
2022-10-14T22:54:09.608Z,9.10
2022-10-14T22:56:41.855Z,9.00
2022-10-14T22:59:12.019Z,9.10
2022-10-14T23:01:41.449Z,9.00
2022-10-14T23:04:16.761Z,8.90
2022-10-14T23:06:49.300Z,8.90
2022-10-14T23:09:16.964Z,8.90
2022-10-14T23:11:44.321Z,8.80
2022-10-14T23:14:11.643Z,8.90
2022-10-14T23:16:44.024Z,8.80
2022-10-14T23:19:11.747Z,8.80
2022-10-14T23:21:39.620Z,8.80
2022-10-14T23:24:10.807Z,8.70
2022-10-14T23:26:38.730Z,8.70
2022-10-14T23:29:11.207Z,8.70
2022-10-14T23:31:39.920Z,8.70
2022-10-14T23:34:11.528Z,8.60
2022-10-14T23:36:39.397Z,8.60
2022-10-14T23:39:10.457Z,8.60
2022-10-14T23:41:37.911Z,8.60
2022-10-14T23:44:07.527Z,8.60
2022-10-14T23:46:35.356Z,8.60
2022-10-14T23:49:07.285Z,8.60
2022-10-14T23:51:42.497Z,8.60
2022-10-14T23:54:11.053Z,8.60
2022-10-14T23:56:38.390Z,8.60
2022-10-14T23:59:06.422Z,8.50
